createdAt,value
2019-05-22T00:00:29.684Z,93.10
2019-05-22T00:03:00.631Z,93.10
2019-05-22T00:05:32.005Z,93.30
2019-05-22T00:08:02.436Z,93.40
2019-05-22T00:10:33.155Z,93.40
2019-05-22T00:13:03.625Z,93.20
2019-05-22T00:15:33.752Z,93.30
2019-05-22T00:18:03.456Z,93.20
2019-05-22T00:20:31.891Z,93.40
2019-05-22T00:23:04.204Z,93.50
2019-05-22T00:25:35.564Z,93.30
2019-05-22T00:28:04.590Z,93.40
2019-05-22T00:30:34.913Z,93.60
2019-05-22T00:33:06.148Z,93.50
2019-05-22T00:35:37.058Z,93.70
2019-05-22T00:38:09.562Z,93.70
2019-05-22T00:40:44.910Z,93.60
2019-05-22T00:43:16.970Z,93.60
2019-05-22T00:45:48.811Z,93.50
2019-05-22T00:48:20.513Z,93.70
2019-05-22T00:51:04.284Z,93.50
2019-05-22T00:53:40.960Z,93.40
2019-05-22T00:56:28.993Z,93.70
2019-05-22T00:59:11.569Z,93.70
2019-05-22T01:01:45.823Z,93.70
2019-05-22T01:04:16.438Z,94.00
2019-05-22T01:06:46.899Z,93.50
2019-05-22T01:09:17.375Z,93.40
2019-05-22T01:11:47.444Z,93.40
2019-05-22T01:14:19.081Z,93.60
2019-05-22T01:16:49.416Z,93.40
2019-05-22T01:19:19.285Z,93.60
2019-05-22T01:21:48.858Z,93.60
2019-05-22T01:24:17.728Z,93.80
2019-05-22T01:26:49.474Z,93.80
2019-05-22T01:29:19.573Z,94.00
2019-05-22T01:31:53.102Z,94.30
2019-05-22T01:34:24.980Z,93.90
2019-05-22T01:36:55.128Z,93.90
2019-05-22T01:39:28.294Z,93.50
2019-05-22T01:41:57.344Z,93.60
2019-05-22T01:44:27.441Z,93.70
2019-05-22T01:46:58.280Z,94.00
2019-05-22T01:49:27.110Z,93.80
2019-05-22T01:51:56.044Z,93.90
2019-05-22T01:54:25.745Z,94.00
2019-05-22T01:56:55.815Z,93.90
2019-05-22T01:59:26.429Z,94.00
2019-05-22T02:01:56.756Z,94.40
2019-05-22T02:04:26.760Z,94.10
2019-05-22T02:06:57.039Z,94.30
2019-05-22T02:09:35.682Z,94.20
2019-05-22T02:12:08.838Z,94.40
2019-05-22T02:14:41.546Z,94.70
2019-05-22T02:17:12.062Z,94.50
2019-05-22T02:19:41.349Z,94.60
2019-05-22T02:22:11.629Z,94.70
2019-05-22T02:24:41.706Z,94.50
2019-05-22T02:27:10.414Z,94.70
2019-05-22T02:29:41.065Z,94.60
2019-05-22T02:32:11.707Z,94.70
2019-05-22T02:34:40.977Z,94.40
2019-05-22T02:37:10.650Z,94.20
2019-05-22T02:39:41.283Z,94.40
2019-05-22T02:42:12.961Z,94.60
2019-05-22T02:44:42.559Z,94.60
2019-05-22T02:47:20.105Z,94.50
2019-05-22T02:49:44.800Z,94.70
2019-05-22T02:52:15.436Z,94.50
2019-05-22T02:54:44.385Z,94.60
2019-05-22T02:57:12.831Z,95.20
2019-05-22T02:59:42.200Z,94.90
2019-05-22T03:02:12.670Z,94.70
2019-05-22T03:04:56.036Z,94.40
2019-05-22T03:07:25.765Z,94.80
2019-05-22T03:09:54.859Z,94.50
2019-05-22T03:12:24.362Z,94.50
2019-05-22T03:14:53.071Z,94.20
2019-05-22T03:17:28.056Z,94.30
2019-05-22T03:19:58.352Z,94.60
2019-05-22T03:22:41.964Z,94.70
2019-05-22T03:25:12.394Z,95.00
2019-05-22T03:27:46.713Z,95.20
2019-05-22T03:30:24.690Z,94.90
2019-05-22T03:32:55.252Z,94.70
2019-05-22T03:35:26.093Z,94.60
2019-05-22T03:37:56.447Z,95.00
2019-05-22T03:40:27.256Z,94.90
2019-05-22T03:42:56.059Z,94.50
2019-05-22T03:45:25.329Z,94.60
2019-05-22T03:47:55.132Z,94.90
2019-05-22T03:50:24.112Z,94.80
2019-05-22T03:52:55.494Z,95.20
2019-05-22T03:55:24.377Z,94.90
2019-05-22T03:57:52.896Z,94.90
2019-05-22T04:00:22.276Z,94.90
2019-05-22T04:02:53.747Z,95.20
2019-05-22T04:05:24.355Z,95.30
2019-05-22T04:07:55.689Z,95.20
2019-05-22T04:10:26.075Z,95.50
2019-05-22T04:12:55.502Z,95.40
2019-05-22T04:15:25.041Z,95.20
2019-05-22T04:17:53.878Z,95.00
2019-05-22T04:20:22.810Z,95.10
2019-05-22T04:22:53.633Z,94.70
2019-05-22T04:25:24.207Z,95.00
2019-05-22T04:27:53.402Z,95.10
2019-05-22T04:30:22.883Z,95.00
2019-05-22T04:32:51.427Z,95.30
2019-05-22T04:35:21.041Z,95.40
2019-05-22T04:37:49.700Z,95.50
2019-05-22T04:40:28.058Z,94.90
2019-05-22T04:42:58.793Z,95.10
2019-05-22T04:45:28.350Z,95.00
2019-05-22T04:48:00.466Z,95.20
2019-05-22T04:50:30.286Z,95.20
2019-05-22T04:53:00.579Z,95.50
2019-05-22T04:55:40.176Z,95.40
2019-05-22T04:58:17.013Z,95.30
2019-05-22T05:00:46.231Z,95.60
2019-05-22T05:03:15.526Z,95.80
2019-05-22T05:05:45.663Z,95.70
2019-05-22T05:08:15.413Z,95.80
2019-05-22T05:10:48.062Z,95.80
2019-05-22T05:13:17.113Z,95.60
2019-05-22T05:15:45.877Z,95.30
2019-05-22T05:18:14.573Z,95.50
2019-05-22T05:20:44.318Z,95.70
2019-05-22T05:23:13.119Z,95.60
2019-05-22T05:25:43.357Z,95.60
2019-05-22T05:28:12.770Z,95.50
2019-05-22T05:30:41.208Z,95.30
2019-05-22T05:33:11.023Z,95.40
2019-05-22T05:35:43.198Z,95.40
2019-05-22T05:38:12.605Z,95.30
2019-05-22T05:40:45.477Z,95.30
2019-05-22T05:43:16.284Z,95.40
2019-05-22T05:45:47.052Z,95.60
2019-05-22T05:48:21.329Z,95.40
2019-05-22T05:51:09.432Z,95.50
2019-05-22T05:54:01.225Z,95.70
2019-05-22T05:56:31.780Z,95.20
2019-05-22T05:59:00.482Z,95.10
2019-05-22T06:01:30.766Z,95.40
2019-05-22T06:04:00.399Z,95.30
2019-05-22T06:06:34.726Z,95.10
2019-05-22T06:09:05.007Z,95.10
2019-05-22T06:11:49.330Z,95.10
2019-05-22T06:17:43.897Z,94.90
2019-05-22T06:20:15.556Z,95.20
2019-05-22T06:22:46.053Z,95.00
2019-05-22T06:25:15.735Z,95.30
2019-05-22T06:27:47.453Z,94.70
2019-05-22T06:30:21.584Z,94.80
2019-05-22T06:33:12.293Z,94.80
2019-05-22T06:35:42.253Z,95.00
2019-05-22T06:38:13.841Z,94.90
2019-05-22T06:40:43.577Z,95.10
2019-05-22T06:43:21.737Z,94.80
2019-05-22T06:45:50.442Z,95.20
2019-05-22T06:48:18.964Z,95.00
2019-05-22T06:50:49.402Z,95.30
2019-05-22T06:53:18.046Z,95.10
2019-05-22T06:55:46.698Z,95.00
2019-05-22T06:58:15.214Z,95.10
2019-05-22T07:00:43.821Z,95.10
2019-05-22T07:03:13.169Z,94.80
2019-05-22T07:05:42.845Z,94.90
2019-05-22T07:08:12.585Z,94.90
2019-05-22T07:10:43.711Z,94.90
2019-05-22T07:13:13.350Z,94.80
2019-05-22T07:15:44.284Z,94.80
2019-05-22T07:18:16.154Z,94.90
2019-05-22T07:20:46.206Z,94.90
2019-05-22T07:23:16.519Z,95.00
2019-05-22T07:25:46.205Z,94.90
2019-05-22T07:28:18.325Z,94.80
2019-05-22T07:30:48.137Z,94.80
2019-05-22T07:33:18.221Z,94.80
2019-05-22T07:36:07.864Z,94.60
2019-05-22T07:38:17.567Z,95.00
2019-05-22T07:40:50.420Z,95.20
2019-05-22T07:43:18.967Z,94.80
2019-05-22T07:45:53.490Z,94.80
2019-05-22T07:48:23.410Z,94.60
2019-05-22T07:50:56.317Z,94.70
2019-05-22T07:53:26.404Z,94.80
2019-05-22T07:55:57.688Z,94.40
2019-05-22T07:58:28.286Z,94.70
2019-05-22T08:00:57.513Z,94.50
2019-05-22T08:03:27.255Z,94.50
2019-05-22T08:05:59.604Z,94.40
2019-05-22T08:08:31.634Z,94.70
2019-05-22T08:11:01.041Z,94.80
2019-05-22T08:13:35.960Z,94.30
2019-05-22T08:16:04.663Z,94.60
2019-05-22T08:18:35.196Z,94.70
2019-05-22T08:21:09.667Z,94.50
2019-05-22T08:23:38.530Z,94.60
2019-05-22T08:26:09.426Z,94.30
2019-05-22T08:28:39.520Z,94.20
2019-05-22T08:31:09.113Z,94.00
2019-05-22T08:33:39.007Z,94.10
2019-05-22T08:36:11.492Z,94.70
2019-05-22T08:38:43.182Z,94.80
2019-05-22T08:41:14.973Z,95.00
2019-05-22T08:44:11.195Z,94.60
2019-05-22T08:46:14.408Z,94.60
2019-05-22T08:48:47.960Z,94.60
2019-05-22T08:51:15.958Z,94.20
2019-05-22T08:53:48.066Z,95.00
2019-05-22T08:56:15.134Z,94.40
2019-05-22T08:58:44.813Z,94.20
2019-05-22T09:01:13.464Z,94.60
2019-05-22T09:03:42.020Z,94.70
2019-05-22T09:06:10.979Z,94.70
2019-05-22T09:08:40.085Z,94.10
2019-05-22T09:11:09.147Z,94.60
2019-05-22T09:13:37.875Z,94.90
2019-05-22T09:16:07.055Z,94.30
2019-05-22T09:18:36.471Z,94.50
2019-05-22T09:21:06.167Z,94.40
2019-05-22T09:23:35.521Z,93.80
2019-05-22T09:26:04.607Z,93.50
2019-05-22T09:28:33.061Z,94.10
2019-05-22T09:31:01.681Z,94.00
2019-05-22T09:33:30.336Z,94.00
2019-05-22T09:35:58.913Z,93.90
2019-05-22T09:38:27.495Z,94.00
2019-05-22T09:40:56.080Z,94.10
2019-05-22T09:43:25.306Z,94.20
2019-05-22T09:45:53.782Z,94.00
2019-05-22T09:48:22.254Z,94.20
2019-05-22T09:50:50.721Z,93.90
2019-05-22T09:53:21.795Z,94.00
2019-05-22T09:55:51.474Z,93.70
2019-05-22T09:58:20.088Z,93.60
2019-05-22T10:00:48.668Z,93.80
2019-05-22T10:03:17.308Z,93.40
2019-05-22T10:05:46.188Z,93.40
2019-05-22T10:08:15.172Z,93.80
2019-05-22T10:10:44.177Z,94.00
2019-05-22T10:13:13.134Z,94.20
2019-05-22T10:15:41.965Z,93.50
2019-05-22T10:18:30.736Z,93.60
2019-05-22T10:20:59.412Z,93.50
2019-05-22T10:26:13.845Z,93.80
2019-05-22T10:28:49.736Z,94.40
2019-05-22T10:31:24.977Z,94.00
2019-05-22T10:33:56.853Z,94.00
2019-05-22T10:36:32.172Z,94.00
2019-05-22T10:38:58.404Z,94.00
2019-05-22T10:41:30.206Z,94.10
2019-05-22T10:43:59.054Z,93.60
2019-05-22T10:46:35.638Z,94.20
2019-05-22T10:49:10.425Z,93.50
2019-05-22T10:51:48.963Z,93.90
2019-05-22T10:54:20.756Z,94.00
2019-05-22T10:56:53.883Z,94.20
2019-05-22T10:59:43.977Z,94.00
2019-05-22T11:02:12.492Z,94.30
2019-05-22T11:04:41.324Z,93.90
2019-05-22T11:07:10.118Z,93.80
2019-05-22T11:09:39.709Z,93.90
2019-05-22T11:12:09.815Z,93.80
2019-05-22T11:14:38.272Z,94.30
2019-05-22T11:17:07.782Z,94.20
2019-05-22T11:19:36.376Z,94.20
2019-05-22T11:22:04.888Z,93.90
2019-05-22T11:24:33.919Z,94.20
2019-05-22T11:27:02.810Z,94.10
2019-05-22T11:29:33.221Z,94.20
2019-05-22T11:32:02.830Z,93.90
2019-05-22T11:34:31.740Z,93.40
2019-05-22T11:37:00.324Z,93.60
2019-05-22T11:39:39.298Z,93.30
2019-05-22T11:42:07.336Z,93.20
2019-05-22T11:44:39.609Z,93.90
2019-05-22T11:47:20.515Z,93.40
2019-05-22T11:49:55.012Z,93.90
2019-05-22T11:52:26.163Z,93.20
2019-05-22T11:54:58.640Z,93.80
2019-05-22T11:57:31.288Z,93.90
2019-05-22T12:00:01.134Z,93.80
2019-05-22T12:02:29.640Z,93.30
2019-05-22T12:04:59.002Z,93.20
2019-05-22T12:07:36.058Z,93.60
2019-05-22T12:10:06.879Z,93.30
2019-05-22T12:12:36.210Z,93.50
2019-05-22T12:15:09.074Z,93.30
2019-05-22T12:17:39.103Z,93.00
2019-05-22T12:20:10.176Z,93.30
2019-05-22T12:22:38.809Z,93.40
2019-05-22T12:25:07.973Z,93.00
2019-05-22T12:27:38.857Z,93.00
2019-05-22T12:30:09.872Z,93.30
2019-05-22T12:32:39.391Z,93.10
2019-05-22T12:35:09.280Z,93.00
2019-05-22T12:37:37.896Z,93.20
2019-05-22T12:40:17.186Z,93.20
2019-05-22T12:42:56.763Z,93.40
2019-05-22T12:45:31.244Z,93.60
2019-05-22T12:48:01.756Z,93.40
2019-05-22T12:50:31.941Z,93.60
2019-05-22T12:53:03.677Z,93.10
2019-05-22T12:55:32.931Z,93.00
2019-05-22T12:58:01.820Z,92.80
2019-05-22T13:00:33.730Z,93.20
2019-05-22T13:03:05.989Z,92.60
2019-05-22T13:05:39.626Z,93.10
2019-05-22T13:08:17.361Z,93.40
2019-05-22T13:10:53.545Z,93.10
2019-05-22T13:13:22.635Z,93.50
2019-05-22T13:15:51.694Z,93.60
2019-05-22T13:18:21.908Z,93.90
2019-05-22T13:20:53.009Z,93.40
2019-05-22T13:23:24.668Z,93.60
2019-05-22T13:25:54.850Z,93.60
2019-05-22T13:28:27.183Z,93.50
2019-05-22T13:30:56.704Z,93.10
2019-05-22T13:33:27.653Z,93.70
2019-05-22T13:35:56.990Z,93.60
2019-05-22T13:38:26.750Z,93.90
2019-05-22T13:40:55.638Z,93.50
2019-05-22T13:43:25.551Z,93.50
2019-05-22T13:45:54.534Z,93.70
2019-05-22T13:48:23.056Z,93.70
2019-05-22T13:50:52.969Z,93.80
2019-05-22T13:53:23.615Z,93.60
2019-05-22T13:55:52.996Z,93.40
2019-05-22T13:58:23.600Z,93.30
2019-05-22T14:00:52.595Z,93.60
2019-05-22T14:03:21.522Z,93.70
2019-05-22T14:05:51.388Z,93.60
2019-05-22T14:08:21.062Z,93.50
2019-05-22T14:10:51.287Z,93.60
2019-05-22T14:13:20.706Z,93.70
2019-05-22T14:15:56.149Z,93.20
2019-05-22T14:18:20.280Z,93.40
2019-05-22T14:20:49.790Z,93.00
2019-05-22T14:23:18.491Z,93.50
2019-05-22T14:25:48.068Z,93.50
2019-05-22T14:28:17.394Z,93.30
2019-05-22T14:30:45.907Z,92.90
2019-05-22T14:33:14.645Z,92.90
2019-05-22T14:35:48.978Z,93.00
2019-05-22T14:38:17.373Z,92.90
2019-05-22T14:41:11.615Z,92.80
2019-05-22T14:43:37.509Z,92.70
2019-05-22T14:46:19.690Z,92.60
2019-05-22T14:48:41.209Z,92.60
2019-05-22T14:51:10.926Z,92.60
2019-05-22T14:53:40.399Z,92.70
2019-05-22T14:56:11.142Z,92.20
2019-05-22T14:58:41.789Z,92.20
2019-05-22T15:01:10.495Z,92.10
2019-05-22T15:03:39.250Z,92.20
2019-05-22T15:06:08.296Z,92.10
2019-05-22T15:08:36.763Z,92.00
2019-05-22T15:11:05.618Z,92.10
2019-05-22T15:13:35.179Z,92.40
2019-05-22T15:16:05.485Z,92.60
2019-05-22T15:18:33.953Z,92.40
2019-05-22T15:21:12.693Z,92.60
2019-05-22T15:23:40.216Z,92.80
2019-05-22T15:26:10.585Z,93.10
2019-05-22T15:28:40.483Z,93.40
2019-05-22T15:31:08.968Z,93.20
2019-05-22T15:33:37.441Z,93.50
2019-05-22T15:36:08.659Z,93.40
2019-05-22T15:38:39.630Z,93.70
2019-05-22T15:41:09.620Z,94.00
2019-05-22T15:43:40.348Z,93.80
2019-05-22T15:46:10.149Z,94.10
2019-05-22T15:48:41.896Z,94.20
2019-05-22T15:51:10.760Z,94.20
2019-05-22T15:53:40.180Z,94.00
2019-05-22T15:56:10.343Z,94.20
2019-05-22T15:58:41.956Z,94.00
2019-05-22T16:01:12.924Z,94.30
2019-05-22T16:03:42.685Z,94.10
2019-05-22T16:06:12.955Z,94.50
2019-05-22T16:08:42.873Z,94.00
2019-05-22T16:11:14.545Z,94.40
2019-05-22T16:13:45.013Z,94.30
2019-05-22T16:16:15.079Z,94.30
2019-05-22T16:18:47.506Z,94.30
2019-05-22T16:21:16.913Z,94.00
2019-05-22T16:23:45.464Z,94.50
2019-05-22T16:26:18.418Z,94.30
2019-05-22T16:28:49.422Z,94.20
2019-05-22T16:31:19.574Z,94.30
2019-05-22T16:33:50.165Z,94.00
2019-05-22T16:36:20.145Z,94.70
2019-05-22T16:38:49.755Z,94.50
2019-05-22T16:41:19.968Z,94.50
2019-05-22T16:43:50.834Z,94.50
2019-05-22T16:46:21.605Z,94.50
2019-05-22T16:48:50.374Z,94.60
2019-05-22T16:51:21.603Z,94.80
2019-05-22T16:53:54.531Z,94.40
2019-05-22T16:56:24.790Z,94.60
2019-05-22T16:58:54.613Z,94.30
2019-05-22T17:01:24.191Z,93.90
2019-05-22T17:03:54.877Z,93.80
2019-05-22T17:06:24.350Z,93.70
2019-05-22T17:08:56.005Z,93.60
2019-05-22T17:11:25.494Z,93.80
2019-05-22T17:13:56.218Z,93.90
2019-05-22T17:16:25.939Z,93.90
2019-05-22T17:18:54.535Z,94.00
2019-05-22T17:21:24.079Z,94.10
2019-05-22T17:23:52.564Z,94.20
2019-05-22T17:26:21.350Z,94.30
2019-05-22T17:28:50.212Z,94.40
2019-05-22T17:31:19.217Z,93.80
2019-05-22T17:33:48.408Z,94.10
2019-05-22T17:36:19.286Z,94.20
2019-05-22T17:38:48.427Z,93.90
2019-05-22T17:41:16.886Z,94.70
2019-05-22T17:43:46.286Z,94.20
2019-05-22T17:46:16.649Z,94.80
2019-05-22T17:48:45.657Z,94.60
2019-05-22T17:51:14.551Z,94.40
2019-05-22T17:53:42.998Z,94.60
2019-05-22T17:56:11.792Z,94.30
2019-05-22T17:58:41.340Z,94.40
2019-05-22T18:01:10.837Z,94.60
2019-05-22T18:03:39.410Z,94.60
2019-05-22T18:06:08.205Z,94.60
2019-05-22T18:08:36.804Z,94.70
2019-05-22T18:11:07.429Z,95.10
2019-05-22T18:13:39.205Z,95.00
2019-05-22T18:16:08.187Z,94.90
2019-05-22T18:18:36.893Z,94.80
2019-05-22T18:21:05.887Z,94.50
2019-05-22T18:23:34.328Z,95.00
2019-05-22T18:26:02.776Z,94.70
2019-05-22T18:28:31.213Z,94.80
2019-05-22T18:31:00.074Z,94.60
2019-05-22T18:33:28.878Z,94.60
2019-05-22T18:35:57.348Z,94.50
2019-05-22T18:38:25.930Z,94.70
2019-05-22T18:40:54.414Z,94.40
2019-05-22T18:43:23.280Z,94.70
2019-05-22T18:45:52.244Z,94.70
2019-05-22T18:48:20.995Z,95.00
2019-05-22T18:50:50.419Z,95.00
2019-05-22T18:53:18.961Z,94.80
2019-05-22T18:55:47.560Z,95.00
2019-05-22T18:58:16.271Z,94.80
2019-05-22T19:00:45.043Z,95.10
2019-05-22T19:03:14.030Z,94.90
2019-05-22T19:05:43.470Z,94.80
2019-05-22T19:08:12.265Z,95.00
2019-05-22T19:10:40.900Z,95.10
2019-05-22T19:13:09.806Z,95.10
2019-05-22T19:15:38.971Z,95.20
2019-05-22T19:18:07.737Z,95.10
2019-05-22T19:20:36.229Z,95.10
2019-05-22T19:23:05.304Z,95.20
2019-05-22T19:25:33.739Z,95.30
2019-05-22T19:28:02.266Z,95.10
2019-05-22T19:30:31.166Z,95.20
2019-05-22T19:33:00.003Z,95.20
2019-05-22T19:35:28.440Z,95.30
2019-05-22T19:37:57.037Z,95.20
2019-05-22T19:40:25.893Z,95.30
2019-05-22T19:42:54.670Z,95.60
2019-05-22T19:45:23.152Z,95.50
2019-05-22T19:47:55.886Z,95.20
2019-05-22T19:50:25.261Z,95.50
2019-05-22T19:52:55.124Z,95.30
2019-05-22T19:55:25.821Z,95.20
2019-05-22T19:57:55.025Z,95.30
2019-05-22T20:00:23.553Z,95.20
2019-05-22T20:02:53.185Z,95.30
2019-05-22T20:05:22.813Z,95.00
2019-05-22T20:07:51.785Z,94.80
2019-05-22T20:10:21.509Z,94.80
2019-05-22T20:12:49.991Z,94.70
2019-05-22T20:15:19.060Z,94.80
2019-05-22T20:17:47.754Z,94.50
2019-05-22T20:20:17.416Z,94.60
2019-05-22T20:22:46.050Z,94.60
2019-05-22T20:25:17.180Z,94.70
2019-05-22T20:27:46.201Z,94.50
2019-05-22T20:30:15.646Z,94.40
2019-05-22T20:32:44.187Z,94.40
2019-05-22T20:35:13.131Z,94.70
2019-05-22T20:37:43.601Z,94.10
2019-05-22T20:40:12.557Z,94.10
2019-05-22T20:42:41.768Z,94.00
2019-05-22T20:45:11.624Z,94.00
2019-05-22T20:47:41.965Z,94.30
2019-05-22T20:50:12.816Z,94.20
2019-05-22T20:52:41.708Z,94.40
2019-05-22T20:55:12.180Z,94.70
2019-05-22T20:57:42.353Z,94.90
2019-05-22T21:00:14.910Z,94.90
2019-05-22T21:02:45.528Z,94.90
2019-05-22T21:05:15.465Z,94.70
2019-05-22T21:07:49.991Z,94.80
2019-05-22T21:10:19.867Z,94.70
2019-05-22T21:12:48.937Z,94.80
2019-05-22T21:15:18.288Z,94.70
2019-05-22T21:17:46.977Z,94.70
2019-05-22T21:20:17.253Z,94.40
2019-05-22T21:22:45.883Z,94.20
2019-05-22T21:25:14.849Z,94.40
2019-05-22T21:27:43.747Z,94.60
2019-05-22T21:30:14.031Z,94.60
2019-05-22T21:32:43.670Z,94.50
2019-05-22T21:35:13.975Z,94.10
2019-05-22T21:37:42.481Z,94.20
2019-05-22T21:40:12.229Z,94.20
2019-05-22T21:42:41.798Z,94.40
2019-05-22T21:45:11.153Z,94.00
2019-05-22T21:47:41.595Z,93.90
2019-05-22T21:50:12.033Z,94.10
2019-05-22T21:52:41.424Z,94.10
2019-05-22T21:55:13.089Z,94.30
2019-05-22T21:57:42.461Z,94.20
2019-05-22T22:00:18.215Z,93.70
2019-05-22T22:02:48.743Z,93.90
2019-05-22T22:05:18.320Z,93.30
2019-05-22T22:07:47.336Z,93.70
2019-05-22T22:10:17.039Z,93.30
2019-05-22T22:12:47.793Z,93.80
2019-05-22T22:15:16.964Z,93.10
2019-05-22T22:17:46.965Z,92.90
2019-05-22T22:20:17.548Z,93.40
2019-05-22T22:22:46.525Z,93.00
2019-05-22T22:25:15.654Z,93.00
2019-05-22T22:27:44.262Z,93.10
2019-05-22T22:30:34.315Z,93.40
2019-05-22T22:33:09.101Z,92.70
2019-05-22T22:35:38.590Z,93.00
2019-05-22T22:38:09.207Z,92.90
2019-05-22T22:40:39.024Z,92.70
2019-05-22T22:43:07.874Z,93.00
2019-05-22T22:45:43.331Z,92.70
2019-05-22T22:48:15.845Z,92.70
2019-05-22T22:50:45.599Z,93.10
2019-05-22T22:53:18.360Z,93.00
2019-05-22T22:55:48.300Z,93.20
2019-05-22T22:58:18.168Z,92.50
2019-05-22T23:00:48.737Z,92.80
2019-05-22T23:03:24.369Z,92.40
2019-05-22T23:05:53.709Z,92.90
2019-05-22T23:08:29.527Z,92.60
2019-05-22T23:10:58.569Z,92.60
2019-05-22T23:13:27.737Z,92.70
2019-05-22T23:15:56.765Z,92.90
2019-05-22T23:18:46.738Z,93.10
2019-05-22T23:21:16.045Z,92.90
2019-05-22T23:23:43.973Z,92.70
2019-05-22T23:26:13.073Z,92.50
2019-05-22T23:28:42.730Z,92.30
2019-05-22T23:31:12.512Z,92.90
2019-05-22T23:33:42.862Z,92.60
2019-05-22T23:36:13.536Z,92.30
2019-05-22T23:38:42.147Z,92.60
2019-05-22T23:41:12.566Z,92.30
2019-05-22T23:43:43.028Z,92.10
2019-05-22T23:46:13.865Z,91.90
2019-05-22T23:48:43.874Z,92.60
2019-05-22T23:51:13.017Z,92.70
2019-05-22T23:53:43.697Z,93.00
2019-05-22T23:56:12.301Z,92.10
2019-05-22T23:58:52.295Z,92.10
